Time;durP1;ratioP1;P1;durP2;ratioP2;P2;SDS_P1;SDS_P2;PMS_P1;PMS_P2;Temp;Humidity;BMP_temperature;BMP_pressure;BME280_temperature;BME280_humidity;BME280_pressure;Samples;Min_cycle;Max_cycle;Signal;HPM_P1;HPM_P2
2022/10/09 00:02:11;;;;;;;0.40;0.30;;;22.30;42.90;;;;;;6098444;28;21058;-59
2022/10/09 00:05:13;;;;;;;0.52;0.28;;;22.30;42.80;;;;;;6087538;28;20131;-57
2022/10/09 00:08:15;;;;;;;0.40;0.30;;;22.50;42.80;;;;;;6089108;28;20058;-59
2022/10/09 00:11:18;;;;;;;;;;;22.30;42.80;;;;;;6090008;28;20079;-59
2022/10/09 00:14:19;;;;;;;0.30;0.30;;;22.40;42.90;;;;;;6074725;28;19927;-59
2022/10/09 00:17:21;;;;;;;;;;;22.20;42.70;;;;;;6099893;28;20158;-59
2022/10/09 00:20:22;;;;;;;0.38;0.20;;;22.40;42.90;;;;;;6102245;28;20000;-58
2022/10/09 00:23:24;;;;;;;0.45;0.30;;;21.90;42.50;;;;;;6091580;28;20042;-59
2022/10/09 00:26:26;;;;;;;0.60;0.40;;;22.50;42.70;;;;;;6081946;29;20066;-59
2022/10/09 00:29:27;;;;;;;0.43;0.28;;;22.10;42.40;;;;;;6089637;28;20929;-58
2022/10/09 00:32:29;;;;;;;;;;;22.30;42.60;;;;;;6092190;28;20039;-59
2022/10/09 00:35:30;;;;;;;;;;;22.10;42.50;;;;;;6086563;28;19969;-59
2022/10/09 00:38:32;;;;;;;0.55;0.45;;;22.00;42.60;;;;;;6087523;28;20918;-57
2022/10/09 00:41:34;;;;;;;0.40;0.30;;;22.50;42.60;;;;;;6065955;29;20864;-58
2022/10/09 00:44:51;;;;;;;;;;;22.30;42.40;;;;;;6082662;29;20039;-59
2022/10/09 00:47:57;;;;;;;0.50;0.30;;;22.00;42.30;;;;;;6080006;28;19970;-59
2022/10/09 00:51:00;;;;;;;0.63;0.30;;;22.50;42.30;;;;;;6096460;28;20086;-59
2022/10/09 00:54:03;;;;;;;0.32;0.22;;;22.10;42.00;;;;;;6085105;28;20079;-59
2022/10/09 00:57:05;;;;;;;0.30;0.20;;;22.00;41.90;;;;;;6070765;28;20894;-59
2022/10/09 01:00:11;;;;;;;0.50;0.30;;;22.10;42.00;;;;;;6078521;29;20858;-59
2022/10/09 01:03:13;;;;;;;1.05;0.50;;;22.50;42.10;;;;;;6077221;29;20052;-59
2022/10/09 01:06:19;;;;;;;0.70;0.28;;;22.20;42.00;;;;;;6088047;28;20047;-59
2022/10/09 01:09:29;;;;;;;0.70;0.40;;;22.10;41.80;;;;;;6064715;28;20079;-58
2022/10/09 01:12:41;;;;;;;0.68;0.40;;;22.30;41.90;;;;;;6091902;28;20150;-59
2022/10/09 01:15:48;;;;;;;0.47;0.30;;;22.30;41.80;;;;;;6091128;28;21100;-58
2022/10/09 01:18:57;;;;;;;0.20;0.10;;;22.40;41.80;;;;;;6078666;29;20237;-59
2022/10/09 01:22:10;;;;;;;0.65;0.30;;;22.00;41.60;;;;;;6066659;29;20932;-59
2022/10/09 01:25:19;;;;;;;0.70;0.38;;;22.00;41.50;;;;;;6091436;28;20061;-58
2022/10/09 01:28:27;;;;;;;0.73;0.43;;;22.00;41.50;;;;;;6101321;28;20118;-59
2022/10/09 01:31:33;;;;;;;0.25;0.20;;;22.20;41.60;;;;;;6103703;28;20876;-59
2022/10/09 01:34:36;;;;;;;0.40;0.20;;;22.30;41.60;;;;;;6106896;28;20905;-59
2022/10/09 01:37:39;;;;;;;0.68;0.30;;;22.30;41.60;;;;;;6104810;28;20047;-59
2022/10/09 01:40:41;;;;;;;0.43;0.40;;;22.20;41.50;;;;;;6079597;28;20574;-58
2022/10/09 01:43:43;;;;;;;0.20;0.20;;;22.20;41.50;;;;;;6082394;28;20514;-56
2022/10/09 01:46:45;;;;;;;0.57;0.20;;;22.10;41.50;;;;;;6079253;28;20083;-57
2022/10/09 01:49:53;;;;;;;0.57;0.28;;;22.20;41.40;;;;;;6079617;28;20177;-59
2022/10/09 01:52:58;;;;;;;0.32;0.20;;;22.10;41.30;;;;;;6064006;29;20075;-57
2022/10/09 01:56:05;;;;;;;0.50;0.28;;;22.30;41.40;;;;;;6080108;29;20052;-58
2022/10/09 01:59:12;;;;;;;0.50;0.25;;;22.20;41.30;;;;;;6077535;28;20614;-54
2022/10/09 02:02:18;;;;;;;0.40;0.30;;;22.20;41.30;;;;;;6080470;28;20551;-57
2022/10/09 02:05:22;;;;;;;0.30;0.30;;;22.10;41.20;;;;;;6079614;28;20138;-57
2022/10/09 02:08:24;;;;;;;0.43;0.22;;;22.10;41.20;;;;;;6073599;29;20090;-56
2022/10/09 02:11:30;;;;;;;0.32;0.22;;;22.20;41.30;;;;;;6084264;28;20595;-56
2022/10/09 02:14:34;;;;;;;0.77;0.28;;;22.00;41.10;;;;;;6051123;28;20449;-58
2022/10/09 02:17:42;;;;;;;0.20;0.20;;;21.80;41.00;;;;;;6065928;28;20255;-58
2022/10/09 02:20:48;;;;;;;0.13;0.10;;;22.00;41.00;;;;;;6089912;28;20409;-56
2022/10/09 02:23:51;;;;;;;0.35;0.28;;;22.30;41.20;;;;;;6091856;28;20175;-56
2022/10/09 02:26:53;;;;;;;0.63;0.40;;;22.10;41.00;;;;;;6078528;28;20117;-58
2022/10/09 02:29:58;;;;;;;0.60;0.38;;;22.20;41.10;;;;;;6087846;28;20785;-58
2022/10/09 02:32:59;;;;;;;0.32;0.20;;;22.30;41.00;;;;;;6076777;28;20129;-57
2022/10/09 02:36:01;;;;;;;;;;;22.00;41.00;;;;;;6075383;29;20078;-56
2022/10/09 02:39:04;;;;;;;0.25;0.20;;;22.30;40.80;;;;;;6089811;28;20279;-56
2022/10/09 02:42:05;;;;;;;0.47;0.25;;;22.50;41.20;;;;;;6066331;29;20126;-58
2022/10/09 02:45:09;;;;;;;0.20;0.15;;;21.90;41.00;;;;;;6074793;29;20055;-57
2022/10/09 02:48:10;;;;;;;0.30;0.30;;;22.10;40.90;;;;;;6084411;28;20834;-58
2022/10/09 02:51:12;;;;;;;;;;;22.30;41.10;;;;;;6079806;28;20087;-54
2022/10/09 02:54:16;;;;;;;0.40;0.20;;;21.70;40.90;;;;;;6084203;28;20359;-58
2022/10/09 02:57:18;;;;;;;0.30;0.20;;;21.70;40.80;;;;;;6078040;28;21038;-57
2022/10/09 03:00:20;;;;;;;0.38;0.20;;;22.30;41.10;;;;;;6088157;28;20050;-57
2022/10/09 03:03:21;;;;;;;0.40;0.20;;;21.80;40.80;;;;;;6079595;28;20043;-58
2022/10/09 03:06:24;;;;;;;0.20;0.20;;;21.90;40.80;;;;;;6089677;28;20087;-58
2022/10/09 03:09:26;;;;;;;0.20;0.20;;;22.20;40.90;;;;;;6072865;29;20339;-58
2022/10/09 03:12:33;;;;;;;0.43;0.20;;;22.20;40.90;;;;;;6084709;28;20043;-58
2022/10/09 03:15:36;;;;;;;;;;;22.00;40.80;;;;;;6078396;28;20043;-56
2022/10/09 03:18:37;;;;;;;0.35;0.20;;;22.10;40.90;;;;;;6066880;28;20116;-58
2022/10/09 03:21:39;;;;;;;0.28;0.20;;;22.00;40.70;;;;;;6067051;29;20574;-58
2022/10/09 03:24:43;;;;;;;0.43;0.22;;;21.90;40.80;;;;;;6077782;28;20439;-58
2022/10/09 03:27:45;;;;;;;0.63;0.30;;;21.80;40.60;;;;;;6084076;28;20565;-58
2022/10/09 03:30:47;;;;;;;;;;;22.20;40.90;;;;;;6079785;28;20313;-58
2022/10/09 03:33:48;;;;;;;0.40;0.30;;;21.90;40.90;;;;;;6074639;29;19930;-58
2022/10/09 03:36:49;;;;;;;;;;;21.90;40.70;;;;;;6081225;28;20170;-58
2022/10/09 03:39:51;;;;;;;0.50;0.20;;;21.70;40.80;;;;;;6072118;28;19950;-58
2022/10/09 03:42:52;;;;;;;;;;;22.10;40.90;;;;;;6082965;28;20067;-58
2022/10/09 03:45:54;;;;;;;0.40;0.20;;;21.80;40.90;;;;;;6086300;28;19937;-57
2022/10/09 03:49:01;;;;;;;0.40;0.30;;;21.80;40.80;;;;;;6077896;28;20659;-57
2022/10/09 03:52:02;;;;;;;;;;;22.00;40.80;;;;;;6081221;28;20043;-57
2022/10/09 03:55:05;;;;;;;0.30;0.20;;;21.80;40.60;;;;;;6081225;28;20313;-58
2022/10/09 03:58:07;;;;;;;0.20;0.20;;;22.10;40.80;;;;;;6069296;28;20357;-57
2022/10/09 04:01:12;;;;;;;0.47;0.28;;;21.80;40.60;;;;;;6073788;28;20401;-58
2022/10/09 04:04:13;;;;;;;0.40;0.25;;;21.90;40.70;;;;;;6093410;28;20394;-56
2022/10/09 04:07:15;;;;;;;0.40;0.30;;;21.70;40.60;;;;;;6086451;28;20105;-56
2022/10/09 04:10:16;;;;;;;;;;;22.10;40.90;;;;;;6089433;28;20054;-57
2022/10/09 04:13:18;;;;;;;0.10;0.10;;;22.10;41.00;;;;;;6077673;28;20004;-54
2022/10/09 04:16:20;;;;;;;;;;;22.10;41.00;;;;;;6078305;28;20055;-57
2022/10/09 04:19:21;;;;;;;0.35;0.25;;;21.90;41.00;;;;;;6076977;28;19930;-58
2022/10/09 04:22:22;;;;;;;;;;;21.80;40.80;;;;;;6072960;28;20562;-55
2022/10/09 04:25:24;;;;;;;0.45;0.22;;;21.80;41.00;;;;;;6073882;29;20626;-57
2022/10/09 04:28:26;;;;;;;0.35;0.20;;;22.00;41.00;;;;;;6074573;28;20533;-58
2022/10/09 04:31:29;;;;;;;0.40;0.30;;;21.60;40.70;;;;;;6061853;28;20085;-56
2022/10/09 04:34:30;;;;;;;0.40;0.20;;;22.10;41.00;;;;;;6089042;28;20794;-56
2022/10/09 04:37:32;;;;;;;;;;;21.40;40.70;;;;;;6081244;28;20857;-55
2022/10/09 04:40:33;;;;;;;0.50;0.20;;;21.60;40.90;;;;;;6087500;28;19981;-58
2022/10/09 04:43:34;;;;;;;;;;;21.70;40.80;;;;;;6077946;28;20083;-58
2022/10/09 04:46:36;;;;;;;0.15;0.15;;;21.50;41.00;;;;;;6074864;29;20767;-59
2022/10/09 04:49:38;;;;;;;0.30;0.20;;;21.90;55.70;;;;;;6066262;28;20306;-58
2022/10/09 04:52:40;;;;;;;0.38;0.30;;;21.90;41.10;;;;;;6074958;28;20047;-56
2022/10/09 04:55:42;;;;;;;;;;;22.00;41.10;;;;;;6083578;29;20036;-54
2022/10/09 04:58:45;;;;;;;0.20;0.10;;;22.00;41.00;;;;;;6067226;29;19937;-56
2022/10/09 05:01:47;;;;;;;0.45;0.20;;;21.60;40.70;;;;;;6053980;29;20497;-56
2022/10/09 05:04:48;;;;;;;0.30;0.15;;;21.70;40.90;;;;;;6071159;28;20223;-56
2022/10/09 05:07:50;;;;;;;;;;;21.60;40.90;;;;;;6088542;28;21818;-56
2022/10/09 05:10:51;;;;;;;0.28;0.25;;;21.50;41.10;;;;;;6064633;29;20017;-57
2022/10/09 05:13:53;;;;;;;;;;;21.90;41.00;;;;;;6069403;29;20051;-58
2022/10/09 05:17:01;;;;;;;0.57;0.10;;;21.50;41.00;;;;;;6076842;28;20347;-57
2022/10/09 05:20:16;;;;;;;0.45;0.20;;;21.80;41.00;;;;;;6074296;29;20058;-56
2022/10/09 05:23:17;;;;;;;0.43;0.25;;;21.60;40.90;;;;;;6053678;28;20310;-56
2022/10/09 05:26:22;;;;;;;;;;;21.90;41.10;;;;;;6086192;28;20358;-57
2022/10/09 05:29:24;;;;;;;0.73;0.30;;;22.00;41.30;;;;;;6081114;28;19953;-56
2022/10/09 05:32:26;;;;;;;;;;;21.90;41.00;;;;;;6090274;28;20410;-55
2022/10/09 05:35:27;;;;;;;0.40;0.22;;;21.50;41.10;;;;;;6089917;28;20522;-57
2022/10/09 05:38:30;;;;;;;0.30;0.30;;;21.80;41.20;;;;;;6084072;28;20367;-58
2022/10/09 05:41:31;;;;;;;0.70;0.40;;;21.70;40.90;;;;;;6085552;28;20463;-58
2022/10/09 05:44:33;;;;;;;0.52;0.20;;;21.80;40.80;;;;;;6086544;28;20896;-58
2022/10/09 05:47:34;;;;;;;;;;;21.80;41.00;;;;;;6082783;28;20174;-58
2022/10/09 05:50:36;;;;;;;0.70;0.30;;;21.30;40.90;;;;;;6082500;28;19933;-57
2022/10/09 05:53:37;;;;;;;;;;;21.40;40.90;;;;;;6085776;28;20490;-57
2022/10/09 05:56:40;;;;;;;0.30;0.20;;;21.10;40.90;;;;;;6060756;28;20335;-57
2022/10/09 05:59:41;;;;;;;0.30;0.20;;;21.90;41.10;;;;;;6042250;28;20238;-56
2022/10/09 06:02:43;;;;;;;0.30;0.20;;;21.80;41.10;;;;;;6064391;29;20591;-58
2022/10/09 06:05:45;;;;;;;0.55;0.22;;;21.90;41.20;;;;;;6074464;28;20154;-53
2022/10/09 06:08:46;;;;;;;;;;;21.80;41.10;;;;;;6081632;28;20226;-55
2022/10/09 06:11:49;;;;;;;0.25;0.20;;;21.50;41.10;;;;;;6075004;28;20825;-55
2022/10/09 06:14:51;;;;;;;0.32;0.20;;;21.40;40.90;;;;;;6054712;28;20043;-57
2022/10/09 06:17:53;;;;;;;;;;;21.50;41.10;;;;;;6082232;28;20051;-57
2022/10/09 06:20:55;;;;;;;0.30;0.30;;;21.70;55.90;;;;;;6069263;28;20313;-58
2022/10/09 06:23:58;;;;;;;0.20;0.20;;;21.80;41.10;;;;;;6071379;29;20587;-58
2022/10/09 06:26:59;;;;;;;0.32;0.25;;;21.70;41.00;;;;;;6060551;28;20558;-56
2022/10/09 06:30:01;;;;;;;0.38;0.20;;;21.90;41.10;;;;;;6076188;28;20238;-55
2022/10/09 06:33:03;;;;;;;;;;;21.70;40.90;;;;;;6073062;28;20454;-58
2022/10/09 06:36:06;;;;;;;0.55;0.40;;;21.60;41.00;;;;;;6071177;29;20859;-54
2022/10/09 06:39:11;;;;;;;0.28;0.20;;;21.90;41.00;;;;;;6070010;28;20460;-58
2022/10/09 06:42:12;;;;;;;;;;;21.80;41.00;;;;;;6065782;29;20180;-55
2022/10/09 06:45:25;;;;;;;0.60;0.30;;;21.60;41.20;;;;;;6070863;28;20250;-56
2022/10/09 06:48:29;;;;;;;0.73;0.40;;;21.90;41.00;;;;;;6069753;28;20043;-56
2022/10/09 06:51:32;;;;;;;0.40;0.40;;;21.20;40.50;;;;;;6072759;28;20575;-56
2022/10/09 06:54:33;;;;;;;0.40;0.30;;;21.90;40.90;;;;;;6075941;28;21199;-57
2022/10/09 06:57:34;;;;;;;;;;;21.80;40.90;;;;;;6079331;28;20047;-56
2022/10/09 07:00:36;;;;;;;0.22;0.13;;;21.70;41.10;;;;;;6071732;28;20313;-54
2022/10/09 07:03:39;;;;;;;;;;;21.80;40.90;;;;;;6078885;28;20074;-58
2022/10/09 07:06:43;;;;;;;0.30;0.20;;;21.40;40.80;;;;;;6074949;28;19941;-56
2022/10/09 07:09:44;;;;;;;0.30;0.30;;;21.80;40.80;;;;;;6069298;29;20048;-56
2022/10/09 07:12:45;;;;;;;;;;;21.90;40.90;;;;;;6069991;28;20194;-55
2022/10/09 07:15:47;;;;;;;0.82;0.30;;;21.70;41.00;;;;;;6073048;28;19935;-58
2022/10/09 07:18:49;;;;;;;;;;;22.20;41.00;;;;;;6079207;28;20046;-56
2022/10/09 07:21:51;;;;;;;0.30;0.22;;;21.90;41.00;;;;;;6077738;28;19984;-58
2022/10/09 07:24:53;;;;;;;0.80;0.20;;;22.00;40.80;;;;;;6079905;28;20488;-55
2022/10/09 07:27:54;;;;;;;;;;;21.90;40.80;;;;;;6085761;28;20783;-57
2022/10/09 07:30:56;;;;;;;0.75;0.32;;;22.20;41.20;;;;;;6083041;28;20183;-56
2022/10/09 07:33:58;;;;;;;0.43;0.32;;;22.00;40.90;;;;;;6065781;28;20625;-57
2022/10/09 07:37:00;;;;;;;0.20;0.20;;;22.10;40.80;;;;;;6064805;29;20078;-56
2022/10/09 07:40:01;;;;;;;;;;;22.00;40.80;;;;;;6076176;28;20043;-54
2022/10/09 07:43:02;;;;;;;0.52;0.30;;;22.10;41.00;;;;;;6085725;28;20824;-59
2022/10/09 07:46:05;;;;;;;;;;;22.10;40.90;;;;;;6072060;28;20572;-53
2022/10/09 07:49:08;;;;;;;0.30;0.20;;;21.90;40.80;;;;;;6071226;28;19927;-56
2022/10/09 07:52:09;;;;;;;0.38;0.20;;;21.90;40.50;;;;;;6064062;28;20065;-58
2022/10/09 07:55:11;;;;;;;;;;;22.10;40.80;;;;;;6065318;28;20043;-56
2022/10/09 07:58:12;;;;;;;0.47;0.20;;;22.30;41.00;;;;;;6064845;28;19966;-57
2022/10/09 08:01:14;;;;;;;0.70;0.20;;;21.70;40.60;;;;;;6060997;29;20054;-58
2022/10/09 08:04:25;;;;;;;0.45;0.20;;;22.10;40.70;;;;;;6068264;29;20591;-54
2022/10/09 08:07:26;;;;;;;0.20;0.20;;;21.90;40.50;;;;;;6069885;28;20565;-59
2022/10/09 08:10:34;;;;;;;0.40;0.20;;;22.20;40.70;;;;;;6065158;28;20051;-57
2022/10/09 08:13:35;;;;;;;0.32;0.20;;;22.10;40.60;;;;;;6062917;28;20658;-56
2022/10/09 08:16:36;;;;;;;;;;;21.80;40.60;;;;;;6079725;28;20157;-55
2022/10/09 08:19:39;;;;;;;1.10;0.10;;;21.90;40.80;;;;;;6066174;29;20426;-57
2022/10/09 08:22:40;;;;;;;0.40;0.20;;;22.30;40.80;;;;;;6066337;29;20400;-56
2022/10/09 08:25:41;;;;;;;;;;;22.20;40.80;;;;;;6069105;28;20826;-58
2022/10/09 08:28:43;;;;;;;0.40;0.10;;;21.90;40.80;;;;;;6077849;28;19926;-57
2022/10/09 08:31:48;;;;;;;0.73;0.30;;;21.90;40.60;;;;;;6069029;28;20421;-58
2022/10/09 08:34:51;;;;;;;;;;;21.90;40.60;;;;;;6071472;28;20538;-55
2022/10/09 08:37:52;;;;;;;0.20;0.10;;;22.70;41.20;;;;;;6074596;28;20056;-58
2022/10/09 08:40:58;;;;;;;;;;;22.40;40.90;;;;;;6083828;28;20785;-58
2022/10/09 08:44:03;;;;;;;0.40;0.20;;;22.00;40.80;;;;;;6087557;28;20695;-57
2022/10/09 08:47:11;;;;;;;0.47;0.30;;;22.10;40.80;;;;;;6087586;28;20118;-57
2022/10/09 08:50:17;;;;;;;0.60;0.20;;;22.40;40.90;;;;;;6076509;28;20053;-57
2022/10/09 08:53:32;;;;;;;0.43;0.30;;;22.20;40.80;;;;;;6080117;28;20642;-55
2022/10/09 08:56:34;;;;;;;0.50;0.30;;;22.00;40.70;;;;;;6082153;28;20572;-58
2022/10/09 08:59:36;;;;;;;0.10;0.10;;;22.60;41.20;;;;;;6072671;28;20548;-55
2022/10/09 09:03:00;;;;;;;0.35;0.28;;;22.20;41.00;;;;;;6062092;29;20044;-57
2022/10/09 09:06:11;;;;;;;0.25;0.20;;;22.20;40.90;;;;;;6058357;28;20044;-55
2022/10/09 09:09:17;;;;;;;;;;;22.10;40.90;;;;;;6069521;28;21078;-57
2022/10/09 09:12:32;;;;;;;0.30;0.30;;;21.90;40.90;;;;;;6084601;28;19926;-58
2022/10/09 09:15:43;;;;;;;0.43;0.20;;;22.00;40.80;;;;;;6061171;28;20052;-56
2022/10/09 09:19:00;;;;;;;0.10;0.10;;;22.10;41.00;;;;;;6076955;28;20048;-56
2022/10/09 09:22:03;;;;;;;0.75;0.28;;;22.40;41.10;;;;;;6073767;29;20073;-58
2022/10/09 09:25:18;;;;;;;0.45;0.30;;;22.10;41.00;;;;;;6071780;28;20171;-54
2022/10/09 09:28:25;;;;;;;0.57;0.20;;;22.50;41.30;;;;;;6065531;28;20697;-56
2022/10/09 09:31:30;;;;;;;0.43;0.30;;;22.20;41.10;;;;;;6066513;28;20049;-55
2022/10/09 09:34:37;;;;;;;0.35;0.20;;;22.50;41.30;;;;;;6055826;29;20094;-59
2022/10/09 09:37:40;;;;;;;0.38;0.20;;;22.70;41.50;;;;;;6075802;28;20055;-56
2022/10/09 09:40:43;;;;;;;0.38;0.20;;;22.50;41.40;;;;;;6072897;28;20513;-59
2022/10/09 09:43:48;;;;;;;0.52;0.20;;;22.50;41.30;;;;;;6078691;28;20226;-56
2022/10/09 09:46:50;;;;;;;0.10;0.10;;;22.40;41.40;;;;;;6074944;28;20177;-58
2022/10/09 09:49:54;;;;;;;0.30;0.30;;;22.20;41.30;;;;;;6080121;28;20645;-58
2022/10/09 09:52:59;;;;;;;0.28;0.20;;;22.30;41.30;;;;;;6058978;28;20448;-58
2022/10/09 09:56:01;;;;;;;0.22;0.20;;;22.40;41.40;;;;;;6064079;28;20060;-58
2022/10/09 09:59:03;;;;;;;0.55;0.20;;;22.20;41.40;;;;;;6081529;28;20075;-57
2022/10/09 10:02:12;;;;;;;0.57;0.20;;;22.30;41.50;;;;;;6049259;29;20044;-54
2022/10/09 10:05:19;;;;;;;0.20;0.20;;;22.20;41.50;;;;;;6072438;28;20048;-54
2022/10/09 10:08:24;;;;;;;0.20;0.10;;;22.30;41.50;;;;;;6061236;28;20154;-55
2022/10/09 10:11:26;;;;;;;0.40;0.20;;;22.40;41.60;;;;;;6072807;28;20051;-58
2022/10/09 10:14:28;;;;;;;0.40;0.30;;;22.30;41.60;;;;;;6084106;28;20051;-58
2022/10/09 10:17:31;;;;;;;0.25;0.20;;;22.70;41.90;;;;;;6068632;28;20066;-57
2022/10/09 10:20:43;;;;;;;0.38;0.20;;;22.80;41.90;;;;;;6080722;28;20114;-57
2022/10/09 10:23:51;;;;;;;0.70;0.30;;;22.40;41.80;;;;;;6058197;29;20054;-55
2022/10/09 10:26:57;;;;;;;0.55;0.25;;;22.70;42.00;;;;;;6082142;28;20158;-55
2022/10/09 10:30:02;;;;;;;0.20;0.20;;;22.70;42.00;;;;;;6070334;28;20158;-55
2022/10/09 10:33:13;;;;;;;0.20;0.20;;;22.70;42.10;;;;;;6054929;28;20279;-57
2022/10/09 10:36:15;;;;;;;0.13;0.10;;;22.70;42.10;;;;;;6077109;28;20189;-58
2022/10/09 10:39:23;;;;;;;0.40;0.20;;;22.50;42.10;;;;;;6067076;28;20271;-55
2022/10/09 10:42:30;;;;;;;0.20;0.20;;;22.90;42.30;;;;;;6075639;28;20911;-56
2022/10/09 10:45:38;;;;;;;0.28;0.20;;;22.80;42.40;;;;;;6073523;28;20098;-58
2022/10/09 10:48:42;;;;;;;0.30;0.20;;;22.90;42.40;;;;;;6048138;28;20959;-58
2022/10/09 10:51:55;;;;;;;0.43;0.20;;;22.40;42.20;;;;;;6053083;28;20046;-58
2022/10/09 10:55:15;;;;;;;0.50;0.20;;;23.00;42.50;;;;;;6080481;28;20087;-56
2022/10/09 10:58:24;;;;;;;0.20;0.20;;;22.90;42.60;;;;;;6078708;28;20529;-58
2022/10/09 11:01:34;;;;;;;0.20;0.20;;;22.80;42.60;;;;;;6067505;28;20086;-55
2022/10/09 11:04:43;;;;;;;0.17;0.17;;;22.90;42.70;;;;;;6056375;28;20058;-58
2022/10/09 11:08:02;;;;;;;0.10;0.10;;;22.90;42.70;;;;;;6086985;28;20163;-58
2022/10/09 11:11:11;;;;;;;0.30;0.30;;;23.00;42.70;;;;;;6075788;28;20786;-55
2022/10/09 11:14:25;;;;;;;0.25;0.20;;;22.40;42.50;;;;;;6061667;28;20163;-58
2022/10/09 11:17:33;;;;;;;0.10;0.10;;;22.60;42.60;;;;;;6082683;28;20043;-57
2022/10/09 11:20:51;;;;;;;0.13;0.13;;;22.50;42.60;;;;;;6065551;29;20273;-57
2022/10/09 11:24:07;;;;;;;0.35;0.30;;;22.50;42.70;;;;;;6072177;28;20449;-55
2022/10/09 11:27:14;;;;;;;0.63;0.30;;;22.40;42.70;;;;;;6077800;28;20905;-55
2022/10/09 11:30:17;;;;;;;0.22;0.20;;;22.80;42.90;;;;;;6077872;28;20424;-57
2022/10/09 11:33:29;;;;;;;0.20;0.20;;;22.60;42.80;;;;;;6055046;28;20047;-55
2022/10/09 11:36:36;;;;;;;0.20;0.20;;;22.90;43.00;;;;;;6079579;28;20054;-56
2022/10/09 11:39:39;;;;;;;0.20;0.10;;;22.70;42.90;;;;;;6065681;28;20079;-57
2022/10/09 11:42:44;;;;;;;0.15;0.15;;;22.80;43.00;;;;;;6075852;28;20097;-57
2022/10/09 11:45:51;;;;;;;0.20;0.20;;;23.20;43.20;;;;;;6074605;28;20048;-54
2022/10/09 11:49:00;;;;;;;0.28;0.10;;;22.60;42.90;;;;;;6056901;28;20442;-59
2022/10/09 11:52:13;;;;;;;0.20;0.10;;;22.90;43.00;;;;;;6071553;28;20692;-57
2022/10/09 11:55:17;;;;;;;0.52;0.28;;;23.00;43.10;;;;;;6068288;28;20654;-57
2022/10/09 11:58:23;;;;;;;0.35;0.20;;;22.60;42.90;;;;;;6068375;28;20969;-56
2022/10/09 12:01:30;;;;;;;0.20;0.20;;;22.80;43.00;;;;;;6074424;28;20219;-58
2022/10/09 12:04:33;;;;;;;0.10;0.10;;;22.80;43.00;;;;;;6060352;28;20162;-58
2022/10/09 12:08:07;;;;;;;0.30;0.15;;;23.00;43.10;;;;;;6067910;28;20039;-56
2022/10/09 12:11:12;;;;;;;0.60;0.20;;;22.90;43.20;;;;;;6081829;28;20263;-54
2022/10/09 12:14:24;;;;;;;0.32;0.20;;;22.70;43.00;;;;;;6055334;28;20481;-58
2022/10/09 12:17:33;;;;;;;0.45;0.20;;;23.10;43.30;;;;;;6075560;28;20084;-58
2022/10/09 12:20:36;;;;;;;0.47;0.20;;;23.10;43.40;;;;;;6079367;28;21166;-58
2022/10/09 12:23:39;;;;;;;0.10;0.10;;;23.20;43.40;;;;;;6068519;28;20819;-55
2022/10/09 12:26:41;;;;;;;0.20;0.10;;;23.00;43.40;;;;;;6071847;28;20371;-56
2022/10/09 12:29:46;;;;;;;0.13;0.10;;;22.70;43.30;;;;;;6068302;28;20071;-55
2022/10/09 12:32:53;;;;;;;0.35;0.20;;;23.40;43.70;;;;;;6070304;28;20051;-59
2022/10/09 12:36:04;;;;;;;0.20;0.13;;;23.20;43.60;;;;;;6065573;28;20214;-55
2022/10/09 12:39:14;;;;;;;0.28;0.20;;;22.90;43.50;;;;;;6059167;28;20159;-58
2022/10/09 12:42:22;;;;;;;0.20;0.20;;;22.90;43.60;;;;;;6035821;28;20087;-57
2022/10/09 12:45:26;;;;;;;0.20;0.20;;;22.90;43.60;;;;;;6026253;28;20047;-55
2022/10/09 12:48:34;;;;;;;0.22;0.10;;;23.20;43.80;;;;;;6053534;28;20809;-57
2022/10/09 12:51:36;;;;;;;0.30;0.20;;;22.90;43.70;;;;;;6057573;28;20460;-58
2022/10/09 12:54:42;;;;;;;0.47;0.30;;;23.10;43.80;;;;;;6063417;28;20047;-56
2022/10/09 12:57:44;;;;;;;0.93;0.22;;;22.70;43.60;;;;;;6031042;29;20230;-54
2022/10/09 13:00:49;;;;;;;0.20;0.10;;;23.10;43.80;;;;;;6049366;29;20443;-56
2022/10/09 13:03:53;;;;;;;0.30;0.28;;;23.00;43.80;;;;;;6040689;28;20050;-55
2022/10/09 13:06:56;;;;;;;0.20;0.20;;;22.80;43.70;;;;;;6046403;29;20271;-55
2022/10/09 13:10:03;;;;;;;0.55;0.30;;;23.20;44.00;;;;;;6050236;29;20039;-54
2022/10/09 13:13:04;;;;;;;0.25;0.20;;;23.40;44.10;;;;;;6031439;28;20893;-56
2022/10/09 13:16:09;;;;;;;0.25;0.20;;;23.20;44.00;;;;;;6066982;28;20097;-54
2022/10/09 13:19:21;;;;;;;0.20;0.20;;;23.20;44.00;;;;;;6049657;29;20090;-58
2022/10/09 13:22:24;;;;;;;0.57;0.28;;;23.00;43.90;;;;;;6047390;29;20130;-54
2022/10/09 13:25:30;;;;;;;0.25;0.20;;;23.00;44.00;;;;;;6024358;29;20481;-58
2022/10/09 13:28:32;;;;;;;0.13;0.13;;;23.30;44.70;;;;;;6050531;29;20276;-56
2022/10/09 13:31:35;;;;;;;0.30;0.20;;;23.00;44.00;;;;;;6054361;28;20855;-57
2022/10/09 13:34:37;;;;;;;0.52;0.20;;;22.90;43.90;;;;;;6052548;28;20945;-58
2022/10/09 13:37:38;;;;;;;;;;;23.10;44.00;;;;;;6055002;28;20134;-56
2022/10/09 13:40:40;;;;;;;0.17;0.10;;;23.00;44.00;;;;;;6052155;29;20314;-55
2022/10/09 13:43:42;;;;;;;0.30;0.20;;;23.30;44.00;;;;;;6057026;28;20051;-54
2022/10/09 13:46:47;;;;;;;;;;;23.10;43.90;;;;;;6048669;29;20162;-58
2022/10/09 13:49:49;;;;;;;0.30;0.20;;;23.10;44.00;;;;;;6052243;29;19993;-57
2022/10/09 13:52:51;;;;;;;0.13;0.13;;;23.40;44.00;;;;;;6043699;28;20051;-57
2022/10/09 13:55:54;;;;;;;0.40;0.15;;;23.40;44.00;;;;;;6049268;29;20089;-57
2022/10/09 13:59:02;;;;;;;1.05;0.30;;;23.40;44.00;;;;;;6050554;29;20047;-58
2022/10/09 14:02:04;;;;;;;0.20;0.20;;;22.90;43.70;;;;;;6055513;28;20282;-56
2022/10/09 14:05:05;;;;;;;0.47;0.17;;;23.10;43.80;;;;;;6051370;28;20900;-55
2022/10/09 14:08:07;;;;;;;0.47;0.30;;;23.40;43.90;;;;;;6063253;28;20089;-58
2022/10/09 14:11:08;;;;;;;;;;;23.20;43.80;;;;;;6047584;29;20048;-57
2022/10/09 14:14:10;;;;;;;0.20;0.20;;;23.50;44.00;;;;;;6057758;28;19969;-58
2022/10/09 14:17:12;;;;;;;0.25;0.20;;;23.50;43.80;;;;;;6050606;28;20871;-54
2022/10/09 14:20:15;;;;;;;0.20;0.20;;;23.60;43.50;;;;;;6067138;28;20207;-55
2022/10/09 14:23:16;;;;;;;0.35;0.20;;;23.30;43.10;;;;;;6045513;28;20410;-58
2022/10/09 14:26:17;;;;;;;;;;;23.60;43.10;;;;;;6045015;28;20074;-56
2022/10/09 14:29:19;;;;;;;0.35;0.10;;;23.10;42.90;;;;;;6053126;28;19966;-55
2022/10/09 14:32:21;;;;;;;0.30;0.20;;;23.70;43.20;;;;;;6062300;28;20047;-56
2022/10/09 14:35:23;;;;;;;0.20;0.20;;;23.50;42.90;;;;;;6039220;28;20039;-55
2022/10/09 14:38:24;;;;;;;0.28;0.20;;;23.30;42.80;;;;;;6051765;28;20039;-56
2022/10/09 14:41:27;;;;;;;0.65;0.20;;;23.40;42.90;;;;;;6057962;28;20043;-56
2022/10/09 14:44:28;;;;;;;0.30;0.30;;;23.40;42.90;;;;;;6064863;28;20077;-55
2022/10/09 14:47:30;;;;;;;0.20;0.10;;;23.40;42.80;;;;;;6067273;28;20326;-55
2022/10/09 14:50:34;;;;;;;0.20;0.10;;;23.30;42.80;;;;;;6062444;28;20268;-58
2022/10/09 14:53:36;;;;;;;0.22;0.22;;;23.50;42.80;;;;;;6053139;28;20042;-56
2022/10/09 14:56:38;;;;;;;0.30;0.20;;;23.40;42.80;;;;;;6035930;28;20187;-57
2022/10/09 14:59:39;;;;;;;0.10;0.10;;;23.60;43.20;;;;;;6010456;28;20269;-53
2022/10/09 15:02:41;;;;;;;0.10;0.10;;;23.70;43.00;;;;;;6048042;29;20177;-54
2022/10/09 15:05:44;;;;;;;0.57;0.20;;;23.60;43.00;;;;;;6063417;28;20555;-56
2022/10/09 15:08:45;;;;;;;1.08;0.20;;;23.60;43.20;;;;;;6060218;28;20685;-55
2022/10/09 15:11:46;;;;;;;;;;;23.70;43.10;;;;;;6055546;28;20467;-57
2022/10/09 15:14:48;;;;;;;0.30;0.20;;;23.70;43.20;;;;;;6060789;28;20061;-56
2022/10/09 15:17:50;;;;;;;0.35;0.20;;;23.60;43.00;;;;;;6064795;28;20596;-56
2022/10/09 15:20:53;;;;;;;0.45;0.30;;;23.80;43.20;;;;;;6053457;28;20559;-58
2022/10/09 15:23:55;;;;;;;0.28;0.25;;;23.30;42.90;;;;;;6067087;28;20162;-58
2022/10/09 15:26:57;;;;;;;0.45;0.30;;;23.60;43.70;;;;;;6019613;29;20055;-56
2022/10/09 15:29:58;;;;;;;0.52;0.20;;;23.60;43.20;;;;;;6060279;28;20121;-56
2022/10/09 15:33:01;;;;;;;0.63;0.32;;;23.30;42.80;;;;;;6077991;28;20142;-59
2022/10/09 15:36:03;;;;;;;0.55;0.30;;;23.50;42.90;;;;;;6039118;29;20044;-58
2022/10/09 15:39:06;;;;;;;0.70;0.30;;;23.90;43.00;;;;;;6066181;28;20054;-58
2022/10/09 15:42:08;;;;;;;0.25;0.20;;;23.80;42.70;;;;;;6075288;28;20052;-57
2022/10/09 15:45:09;;;;;;;0.45;0.20;;;23.40;42.40;;;;;;6068735;28;20047;-57
2022/10/09 15:48:15;;;;;;;0.20;0.20;;;23.70;42.40;;;;;;6072733;28;21072;-58
2022/10/09 15:51:17;;;;;;;0.40;0.30;;;23.80;42.40;;;;;;6080818;28;20965;-58
2022/10/09 15:54:19;;;;;;;0.65;0.20;;;23.50;42.20;;;;;;6073490;28;20047;-58
2022/10/09 15:57:20;;;;;;;0.60;0.30;;;23.80;42.30;;;;;;6073267;28;20069;-58
2022/10/09 16:00:22;;;;;;;;;;;23.50;42.10;;;;;;6063480;29;21047;-59
2022/10/09 16:03:24;;;;;;;;;;;23.90;42.40;;;;;;6071540;28;19930;-59
2022/10/09 16:06:25;;;;;;;0.20;0.20;;;23.80;42.50;;;;;;6069008;28;21490;-57
2022/10/09 16:09:31;;;;;;;0.30;0.20;;;23.80;42.40;;;;;;6040403;29;20039;-59
2022/10/09 16:12:36;;;;;;;0.30;0.20;;;23.60;42.30;;;;;;6080260;28;20051;-58
2022/10/09 16:15:39;;;;;;;0.25;0.15;;;23.50;42.20;;;;;;6073785;28;20043;-59